Time;durP1;ratioP1;P1;durP2;ratioP2;P2;SDS_P1;SDS_P2;PMS_P1;PMS_P2;Temp;Humidity;BMP_temperature;BMP_pressure;BME280_temperature;BME280_humidity;BME280_pressure;Samples;Min_cycle;Max_cycle;Signal;HPM_P1;HPM_P2
2021/03/26 11:09:35;;;;;;;;;;;;;;;;;;;;;
2021/03/26 11:12:45;;;;;;;6.30;5.63;;;;;;;11.00;31.92;100775.74;1736308;79;22732;-86
2021/03/26 11:15:39;;;;;;;6.50;5.07;;;;;;;11.02;31.89;100768.39;1594786;89;21183;-87
2021/03/26 11:21:49;;;;;;;5.30;4.90;;;;;;;11.12;31.59;100765.48;1799982;79;23060;-87
2021/03/26 11:27:56;;;;;;;4.30;3.20;;;;;;;11.13;31.96;100765.80;1791615;79;22791;-86
2021/03/26 11:31:09;;;;;;;5.93;4.47;;;;;;;11.07;31.62;100766.02;1735055;80;21781;-88
2021/03/26 11:33:58;;;;;;;8.10;5.47;;;;;;;10.94;32.32;100769.29;1721869;81;21144;-90
2021/03/26 11:36:52;;;;;;;4.60;4.20;;;;;;;10.55;32.76;100711.64;1718484;82;21234;-87
2021/03/26 11:39:58;;;;;;;5.90;4.73;;;;;;;11.00;33.04;100762.41;1751748;79;23240;-87
2021/03/26 11:42:47;;;;;;;7.10;4.70;;;;;;;10.99;33.07;100765.59;1750276;80;21172;-89
2021/03/26 11:45:47;;;;;;;6.03;5.00;;;;;;;11.05;33.10;100763.52;1716493;81;21301;-88
2021/03/26 11:48:49;;;;;;;5.13;3.50;;;;;;;11.14;33.05;100767.47;1724327;81;22170;-89
2021/03/26 11:51:27;;;;;;;5.00;4.53;;;;;;;11.19;33.24;100763.73;1710639;81;21241;-88
2021/03/26 11:54:51;;;;;;;4.80;4.40;;;;;;;11.19;33.12;100753.91;1786895;79;22525;-87
2021/03/26 11:57:54;;;;;;;4.93;4.30;;;;;;;11.13;33.37;100759.13;1707543;80;21104;-88
2021/03/26 12:00:40;;;;;;;;;;;;;;;;;;;;;
2021/03/26 12:04:08;;;;;;;;;;;;;;;;;;;;;
2021/03/26 12:07:03;;;;;;;3.43;3.13;;;;;;;11.14;33.75;100748.79;1742262;80;21867;-87
2021/03/26 12:09:53;;;;;;;3.13;2.83;;;;;;;11.10;33.81;100757.15;1752504;80;21203;-88
2021/03/26 12:12:46;;;;;;;4.90;3.93;;;;;;;11.14;34.20;100747.45;1768239;76;22837;-88
2021/03/26 12:15:29;;;;;;;6.60;3.80;;;;;;;11.14;34.12;100752.80;1726714;81;21735;-90
2021/03/26 12:18:20;;;;;;;3.43;2.80;;;;;;;11.19;34.16;100746.38;1717522;81;21245;-87
2021/03/26 12:20:51;;;;;;;4.77;3.67;;;;;;;11.20;34.26;100738.72;1714090;81;21298;-87
2021/03/26 12:24:39;;;;;;;4.37;3.97;;;;;;;11.18;34.36;100735.41;1780223;76;26523;-89
2021/03/26 12:27:41;;;;;;;3.37;3.07;;;;;;;11.18;34.36;100735.41;1724880;81;21751;-87
2021/03/26 12:30:28;;;;;;;3.30;3.10;;;;;;;11.10;34.79;100729.65;1809641;77;23083;-89
2021/03/26 12:33:07;;;;;;;3.53;2.73;;;;;;;11.04;34.86;100739.20;1807332;78;21323;-87
2021/03/26 12:35:42;;;;;;;3.27;2.90;;;;;;;9.92;34.98;100550.58;1797261;79;21215;-88
2021/03/26 12:38:26;;;;;;;2.07;1.93;;;;;;;11.13;34.98;100738.60;1743569;79;21122;-89
2021/03/26 12:41:13;;;;;;;3.23;2.03;;;;;;;11.18;35.04;100735.41;1737981;80;21177;-88
2021/03/26 12:44:09;;;;;;;5.67;2.63;;;;;;;10.73;34.93;100647.84;1736445;81;21309;-89
2021/03/26 12:46:58;;;;;;;4.77;2.60;;;;;;;11.27;34.66;100727.64;1755740;81;21179;-86
2021/03/26 12:49:37;;;;;;;5.60;2.60;;;;;;;11.29;34.73;100721.61;1748877;81;21809;-88
2021/03/26 12:52:56;;;;;;;3.00;2.67;;;;;;;11.34;34.71;100715.70;1755642;81;21624;-88
2021/03/26 12:55:31;;;;;;;3.20;2.17;;;;;;;11.36;34.55;100717.20;1754889;81;21106;-88
2021/03/26 12:58:24;;;;;;;1.43;1.13;;;;;;;11.40;34.34;100719.81;1697654;82;21334;-89
2021/03/26 13:01:10;;;;;;;3.57;0.97;;;;;;;11.44;33.94;100723.77;1694691;82;21349;-87
2021/03/26 13:03:58;;;;;;;;;;;;;;;;;;;;;
2021/03/26 13:06:38;;;;;;;1.93;1.83;;;;;;;11.45;33.76;100710.76;1750593;79;22900;-89
2021/03/26 13:09:34;;;;;;;3.43;1.70;;;;;;;11.45;33.76;100710.76;1770237;80;21575;-88
2021/03/26 13:12:34;;;;;;;1.40;1.30;;;;;;;11.48;33.95;100721.05;1733929;80;21473;-87
2021/03/26 13:15:36;;;;;;;1.90;1.53;;;;;;;11.55;33.85;100703.80;1798793;77;22496;-87
2021/03/26 13:18:12;;;;;;;4.03;1.50;;;;;;;11.52;33.98;100712.16;1762307;80;21352;-87
2021/03/26 13:21:13;;;;;;;3.53;0.93;;;;;;;11.56;33.93;100724.64;1719740;80;21286;-86
2021/03/26 13:23:44;;;;;;;3.13;0.90;;;;;;;11.60;33.88;100720.09;1715945;80;21091;-90
2021/03/26 13:26:20;;;;;;;2.23;2.03;;;;;;;11.63;33.64;100718.37;1699897;83;21229;-89
2021/03/26 13:29:05;;;;;;;1.70;1.53;;;;;;;11.65;33.78;100712.33;1697395;83;21238;-91
2021/03/26 13:31:42;;;;;;;3.47;1.83;;;;;;;11.66;34.24;100714.52;1696074;83;21178;-88
2021/03/26 13:34:23;;;;;;;4.90;2.17;;;;;;;11.69;34.40;100716.80;1696209;82;21215;-90
2021/03/26 13:37:20;;;;;;;5.17;2.30;;;;;;;11.70;34.24;100703.78;1698874;83;21219;-88
2021/03/26 13:40:04;;;;;;;;;;;;;;;;;;;;;
2021/03/26 13:42:49;;;;;;;3.07;1.37;;;;;;;11.71;34.44;100704.08;1698382;83;21440;-87
2021/03/26 13:45:24;;;;;;;2.90;2.25;;;;;;;11.71;34.39;100696.59;1677443;81;21350;-87
2021/03/26 13:48:19;;;;;;;3.13;1.83;;;;;;;11.69;34.48;100695.44;1671935;84;21190;-88
2021/03/26 13:51:19;;;;;;;2.20;1.90;;;;;;;11.81;34.61;100694.44;1761071;79;22701;-88
2021/03/26 13:53:58;;;;;;;5.57;1.03;;;;;;;11.80;34.54;100696.28;1769263;79;21141;-88
2021/03/26 13:56:42;;;;;;;3.00;2.23;;;;;;;11.82;34.48;100699.59;1770506;79;21511;-88
2021/03/26 13:59:20;;;;;;;5.77;1.87;;;;;;;11.81;34.49;100701.97;1733554;77;21322;-87
2021/03/26 14:01:56;;;;;;;1.80;1.40;;;;;;;11.81;34.63;100696.62;1696355;82;21102;-89
2021/03/26 14:07:41;;;;;;;3.17;2.20;;;;;;;11.99;34.41;100688.72;1788900;77;22787;-90
2021/03/26 14:10:43;;;;;;;2.37;1.60;;;;;;;11.95;34.26;100697.63;1776142;80;21239;-87
2021/03/26 14:13:18;;;;;;;1.67;1.37;;;;;;;11.91;34.48;100699.02;1750789;80;21147;-86
2021/03/26 14:16:15;;;;;;;1.60;1.33;;;;;;;11.83;34.67;100701.78;1712470;81;21921;-88
2021/03/26 14:18:51;;;;;;;3.80;2.07;;;;;;;11.80;34.86;100700.30;1714506;81;21176;-86
2021/03/26 14:21:40;;;;;;;1.87;1.37;;;;;;;11.78;34.58;100706.84;1714477;82;21356;-86
2021/03/26 14:24:45;;;;;;;2.20;1.25;;;;;;;11.80;34.90;100699.48;1729162;81;23061;-88
2021/03/26 14:27:48;;;;;;;1.73;1.47;;;;;;;11.72;34.99;100699.59;1709488;79;262522;-89
2021/03/26 14:30:43;;;;;;;3.70;1.67;;;;;;;11.73;35.07;100697.23;1634824;85;21272;-87
2021/03/26 14:33:24;;;;;;;2.30;1.43;;;;;;;11.70;35.19;100697.11;1622033;86;21188;-88
2021/03/26 14:36:18;;;;;;;;;;;;;;;;;;;;;
2021/03/26 14:38:58;;;;;;;2.23;2.00;;;;;;;11.80;35.13;100699.48;1817736;77;22825;-87
2021/03/26 14:41:38;;;;;;;3.80;3.27;;;;;;;11.74;35.12;100701.56;1818499;77;21173;-88
2021/03/26 14:44:15;;;;;;;2.40;2.20;;;;;;;11.56;35.20;100678.73;1786224;76;21813;-89
2021/03/26 14:47:11;;;;;;;1.63;1.43;;;;;;;11.67;35.39;100704.14;1743255;81;21708;-87
2021/03/26 14:49:56;;;;;;;6.57;2.30;;;;;;;11.62;35.63;100697.19;1743246;80;21394;-87
2021/03/26 14:52:40;;;;;;;3.20;1.80;;;;;;;11.58;35.62;100707.92;1741981;81;21333;-87
2021/03/26 14:55:21;;;;;;;5.20;2.27;;;;;;;11.54;35.66;100703.98;1743129;79;21337;-87
2021/03/26 14:58:09;;;;;;;2.17;1.70;;;;;;;11.49;35.79;100705.88;1769836;79;21303;-88
2021/03/26 15:00:57;;;;;;;2.07;1.87;;;;;;;11.44;35.80;100711.75;1767062;79;21115;-87
2021/03/26 15:03:56;;;;;;;4.23;2.27;;;;;;;11.44;35.85;100718.43;1775703;79;21409;-87
2021/03/26 15:06:38;;;;;;;3.90;3.53;;;;;;;11.41;35.99;100711.30;1772252;79;21135;-87
2021/03/26 15:09:21;;;;;;;10.07;9.13;;;;;;;11.28;36.19;100692.77;1770219;79;21176;-88
2021/03/26 15:12:12;;;;;;;3.90;3.37;;;;;;;11.35;36.34;100714.71;1774792;79;22216;-87
2021/03/26 15:15:06;;;;;;;1.97;1.83;;;;;;;11.26;36.45;100711.30;1764074;79;21180;-86
2021/03/26 15:17:47;;;;;;;2.43;1.73;;;;;;;11.23;36.50;100715.17;1769325;79;21305;-85
2021/03/26 15:20:27;;;;;;;3.27;1.80;;;;;;;11.21;36.63;100707.85;1772031;79;21294;-85
2021/03/26 15:23:20;;;;;;;4.57;3.43;;;;;;;11.21;36.86;100719.04;1774545;79;21234;-85
2021/03/26 15:26:29;;;;;;;3.63;2.53;;;;;;;11.17;36.75;100720.39;1786548;79;21322;-87
2021/03/26 15:29:22;;;;;;;5.13;2.67;;;;;;;11.12;36.82;100729.47;1750543;79;21144;-86
2021/03/26 15:32:05;;;;;;;3.87;2.60;;;;;;;11.07;36.93;100728.16;1771148;79;21175;-87
2021/03/26 15:34:59;;;;;;;3.17;2.47;;;;;;;11.04;36.94;100727.20;1758683;79;21040;-86
2021/03/26 15:37:51;;;;;;;4.53;2.33;;;;;;;11.00;37.14;100729.91;1771119;79;21211;-86
2021/03/26 15:41:10;;;;;;;3.23;2.90;;;;;;;10.97;37.07;100742.27;1748931;80;21211;-87
2021/03/26 15:44:18;;;;;;;3.57;2.97;;;;;;;10.98;37.06;100727.94;1803326;77;22682;-86
2021/03/26 15:47:16;;;;;;;4.40;2.60;;;;;;;10.86;37.13;100736.86;1727350;81;21496;-85
2021/03/26 15:49:51;;;;;;;4.43;2.97;;;;;;;10.81;37.38;100740.59;1727187;81;21358;-87
2021/03/26 15:53:11;;;;;;;4.13;2.23;;;;;;;10.52;37.48;100697.33;1837788;76;23596;-88
2021/03/26 15:56:05;;;;;;;3.03;2.70;;;;;;;10.75;37.73;100746.63;1774335;78;22398;-86
2021/03/26 15:58:55;;;;;;;9.03;3.10;;;;;;;10.73;37.87;100749.16;1725686;81;21325;-87
2021/03/26 16:01:46;;;;;;;;;;;;;;;10.50;37.99;100723.34;1718501;81;21294;-87
2021/03/26 16:04:52;;;;;;;5.60;3.63;;;;;;;10.64;38.08;100759.04;1690600;82;20201;-86
2021/03/26 16:07:33;;;;;;;5.07;3.80;;;;;;;10.57;38.37;100759.42;1700733;82;21255;-88
2021/03/26 16:10:43;;;;;;;4.57;3.93;;;;;;;10.55;38.69;100754.77;1699639;82;21327;-89
2021/03/26 16:13:22;;;;;;;4.83;4.30;;;;;;;10.52;39.03;100754.64;1702324;82;21144;-88
2021/03/26 16:16:11;;;;;;;5.93;4.47;;;;;;;10.47;39.40;100760.99;1697668;82;21652;-91
2021/03/26 16:19:17;;;;;;;10.10;5.37;;;;;;;10.42;39.72;100757.55;1707757;82;21213;-86
2021/03/26 16:22:35;;;;;;;6.80;5.40;;;;;;;10.40;39.99;100765.39;1696262;82;21863;-87
2021/03/26 16:25:31;;;;;;;6.65;4.65;;;;;;;9.06;40.26;100552.47;1703712;82;21352;-88
2021/03/26 16:28:46;;;;;;;11.23;7.07;;;;;;;10.39;40.68;100773.05;1704786;82;21282;-86
2021/03/26 16:31:53;;;;;;;8.03;6.10;;;;;;;10.35;40.96;100771.75;1708817;83;21162;-86
2021/03/26 16:34:48;;;;;;;12.37;7.73;;;;;;;10.29;41.25;100776.73;1723559;81;21609;-84
2021/03/26 16:37:41;;;;;;;12.10;7.83;;;;;;;10.28;41.60;100782.23;1743880;81;21152;-86
2021/03/26 16:40:38;;;;;;;10.67;8.97;;;;;;;10.26;41.82;100785.07;1728334;81;21248;-87
2021/03/26 16:43:56;;;;;;;9.27;8.27;;;;;;;10.23;42.28;100784.62;1740257;80;21431;-89
2021/03/26 16:46:40;;;;;;;13.83;9.77;;;;;;;10.20;42.86;100787.62;1738146;80;21120;-86
2021/03/26 16:49:40;;;;;;;18.93;12.20;;;;;;;10.13;43.33;100790.14;1736855;80;21660;-86
2021/03/26 16:52:28;;;;;;;15.18;12.43;;;;;;;10.12;43.53;100791.16;1731302;80;21703;-87
2021/03/26 16:55:27;;;;;;;17.13;12.53;;;;;;;10.07;43.74;100793.50;1613474;87;21256;-87
2021/03/26 16:58:27;;;;;;;16.70;13.87;;;;;;;10.05;43.76;100796.84;1607039;87;21335;-87
2021/03/26 17:01:36;;;;;;;21.83;14.53;;;;;;;10.02;44.05;100803.36;1635601;85;21214;-90
2021/03/26 17:04:35;;;;;;;19.07;15.43;;;;;;;10.01;44.16;100807.52;1658255;85;21397;-89
2021/03/26 17:07:35;;;;;;;;;;;;;;;;;;;;;
2021/03/26 17:14:22;;;;;;;22.80;15.33;;;;;;;9.61;44.49;100760.09;1756703;79;23069;-91
2021/03/26 17:17:11;;;;;;;25.20;15.47;;;;;;;9.82;44.78;100821.56;1700851;82;21172;-87
2021/03/26 17:19:52;;;;;;;18.90;15.60;;;;;;;9.77;44.88;100823.91;1721748;82;21171;-90
2021/03/26 17:23:03;;;;;;;17.37;14.73;;;;;;;9.75;44.98;100827.23;1689652;81;21234;-85
2021/03/26 17:26:00;;;;;;;21.07;16.07;;;;;;;9.73;45.34;100827.91;1709551;81;21446;-87
2021/03/26 17:29:00;;;;;;;17.87;14.13;;;;;;;9.67;45.52;100828.61;1679125;83;21253;-85
2021/03/26 17:32:11;;;;;;;18.80;14.27;;;;;;;9.61;45.59;100826.63;1689305;82;21231;-86
2021/03/26 17:35:11;;;;;;;16.40;14.63;;;;;;;9.58;45.81;100829.11;1701160;81;21293;-86
2021/03/26 17:38:05;;;;;;;21.33;14.70;;;;;;;9.56;45.96;100837.77;1737938;80;21379;-86
2021/03/26 17:40:54;;;;;;;20.33;13.83;;;;;;;9.51;46.25;100836.95;1732477;81;21203;-87
2021/03/26 17:43:33;;;;;;;16.87;13.20;;;;;;;9.46;46.56;100847.27;1729606;81;21633;-88
2021/03/26 17:46:42;;;;;;;23.63;15.63;;;;;;;9.40;46.58;100846.63;1686688;80;21103;-88
2021/03/26 17:49:41;;;;;;;20.80;15.97;;;;;;;9.39;46.66;100854.26;1671346;84;21799;-87
2021/03/26 17:52:48;;;;;;;18.10;14.93;;;;;;;9.37;46.81;100846.95;1679138;83;22322;-89
2021/03/26 17:55:50;;;;;;;21.80;14.93;;;;;;;9.37;46.85;100854.92;1672188;80;21516;-87
2021/03/26 17:58:43;;;;;;;18.70;15.00;;;;;;;9.38;47.18;100861.92;1704575;81;21145;-89
2021/03/26 18:01:45;;;;;;;19.97;15.23;;;;;;;9.35;47.33;100860.41;1682160;82;21267;-88
2021/03/26 18:04:33;;;;;;;16.60;14.70;;;;;;;9.32;47.75;100863.91;1652888;85;21201;-89
2021/03/26 18:07:11;;;;;;;25.13;16.67;;;;;;;9.24;47.88;100858.09;1653833;85;21186;-90
2021/03/26 18:11:14;;;;;;;21.77;15.67;;;;;;;9.24;48.38;100857.27;1786642;77;24939;-88
2021/03/26 18:13:55;;;;;;;21.57;19.10;;;;;;;8.87;48.46;100814.70;1623595;84;22032;-90
2021/03/26 18:16:41;;;;;;;22.10;16.90;;;;;;;7.90;48.54;100662.98;1654363;84;21821;-88
2021/03/26 18:19:25;;;;;;;20.30;17.60;;;;;;;7.86;48.82;100655.84;1645943;84;21239;-89
2021/03/26 18:22:11;;;;;;;21.43;16.37;;;;;;;9.16;49.02;100870.89;1648459;84;21354;-87
2021/03/26 18:25:28;;;;;;;22.30;17.00;;;;;;;9.13;49.34;100869.06;1666909;84;21337;-88
2021/03/26 18:28:28;;;;;;;23.17;17.53;;;;;;;9.11;49.72;100876.38;1589034;88;21436;-89
2021/03/26 18:31:13;;;;;;;22.00;18.90;;;;;;;9.08;49.55;100874.89;1618137;87;21257;-86
2021/03/26 18:33:52;;;;;;;22.90;17.07;;;;;;;9.03;49.77;100885.69;1614761;85;21168;-87
2021/03/26 18:36:28;;;;;;;21.97;16.87;;;;;;;9.00;50.11;100878.85;1647530;86;21353;-87
2021/03/26 18:39:20;;;;;;;27.03;18.27;;;;;;;8.97;50.34;100877.87;1642313;85;21282;-87
2021/03/26 18:42:35;;;;;;;25.07;17.50;;;;;;;8.91;50.60;100875.84;1640218;85;21168;-87
